Time;durP1;ratioP1;P1;durP2;ratioP2;P2;SDS_P1;SDS_P2;PMS_P1;PMS_P2;Temp;Humidity;BMP_temperature;BMP_pressure;BME280_temperature;BME280_humidity;BME280_pressure;Samples;Min_cycle;Max_cycle;Signal;HPM_P1;HPM_P2
2022/08/17 00:00:41;;;;;;;8.60;7.77;;;;;;;;;;5027800;28;20630;-73
2022/08/17 00:03:12;;;;;;;7.93;7.13;;;;;;;;;;5011977;28;20314;-73
2022/08/17 00:05:49;;;;;;;6.57;5.97;;;;;;;;;;5029574;28;20202;-73
2022/08/17 00:08:16;;;;;;;8.00;6.30;;;;;;;;;;5012743;28;20227;-73
2022/08/17 00:10:43;;;;;;;6.33;5.73;;;;;;;;;;5026957;28;20186;-73
2022/08/17 00:13:11;;;;;;;6.07;5.43;;;;;;;;;;5028432;28;20662;-72
2022/08/17 00:15:37;;;;;;;6.23;5.63;;;;;;;;;;5027733;28;20205;-72
2022/08/17 00:18:04;;;;;;;6.47;5.97;;;;;;;;;;5028918;28;20174;-72
2022/08/17 00:20:30;;;;;;;9.03;6.87;;;;;;;;;;5027350;28;20678;-72
2022/08/17 00:23:22;;;;;;;7.30;6.60;;;;;;;;;;5020148;28;20207;-71
2022/08/17 00:25:49;;;;;;;7.30;6.70;;;;;;;;;;5009478;28;20218;-72
2022/08/17 00:28:16;;;;;;;7.90;7.20;;;;;;;;;;5028833;28;20178;-72
2022/08/17 00:30:47;;;;;;;8.13;7.43;;;;;;;;;;5024671;28;20547;-72
2022/08/17 00:33:15;;;;;;;7.60;6.93;;;;;;;;;;5033378;28;20284;-72
2022/08/17 00:35:42;;;;;;;7.17;6.47;;;;;;;;;;5033114;28;20174;-72
2022/08/17 00:38:08;;;;;;;7.50;6.90;;;;;;;;;;5033559;28;20190;-72
2022/08/17 00:41:04;;;;;;;7.10;6.40;;;;;;;;;;5032021;28;20554;-72
2022/08/17 00:43:32;;;;;;;7.10;6.43;;;;;;;;;;5026591;28;20186;-72
2022/08/17 00:46:00;;;;;;;7.23;6.53;;;;;;;;;;5033358;28;20276;-72
2022/08/17 00:48:26;;;;;;;6.57;5.97;;;;;;;;;;5033607;28;20229;-72
2022/08/17 00:50:58;;;;;;;7.70;6.77;;;;;;;;;;5032013;28;20193;-72
2022/08/17 00:53:25;;;;;;;7.37;6.53;;;;;;;;;;5032114;28;20182;-72
2022/08/17 00:55:52;;;;;;;7.53;6.83;;;;;;;;;;5026913;28;20182;-72
2022/08/17 00:58:18;;;;;;;7.10;6.37;;;;;;;;;;5031300;28;21443;-72
2022/08/17 01:00:45;;;;;;;7.50;6.80;;;;;;;;;;5031611;28;20700;-72
2022/08/17 01:03:15;;;;;;;6.20;5.60;;;;;;;;;;5008196;28;20209;-72
2022/08/17 01:05:42;;;;;;;6.43;5.93;;;;;;;;;;4997587;28;20571;-72
2022/08/17 01:08:10;;;;;;;7.00;6.27;;;;;;;;;;5033245;28;20182;-72
2022/08/17 01:10:41;;;;;;;6.37;5.87;;;;;;;;;;5031910;28;20197;-72
2022/08/17 01:13:07;;;;;;;5.90;5.40;;;;;;;;;;5030634;28;20207;-72
2022/08/17 01:15:39;;;;;;;5.97;5.37;;;;;;;;;;5027320;28;20726;-72
2022/08/17 01:18:06;;;;;;;6.40;5.83;;;;;;;;;;5031383;28;20186;-72
2022/08/17 01:20:32;;;;;;;7.10;6.50;;;;;;;;;;5032551;28;20182;-72
2022/08/17 01:22:59;;;;;;;8.03;6.77;;;;;;;;;;5014494;28;20264;-72
2022/08/17 01:25:27;;;;;;;7.77;7.07;;;;;;;;;;5032048;28;20197;-72
2022/08/17 01:27:53;;;;;;;8.47;7.57;;;;;;;;;;5030947;28;20193;-72
2022/08/17 01:30:19;;;;;;;8.20;7.40;;;;;;;;;;5028161;28;20178;-72
2022/08/17 01:32:45;;;;;;;7.00;6.30;;;;;;;;;;5032213;28;20676;-72
2022/08/17 01:35:11;;;;;;;8.23;7.53;;;;;;;;;;5032908;28;20206;-72
2022/08/17 01:37:39;;;;;;;7.73;7.10;;;;;;;;;;5014437;28;20228;-72
2022/08/17 01:40:14;;;;;;;7.40;6.80;;;;;;;;;;5031689;28;20229;-72
2022/08/17 01:42:45;;;;;;;7.63;6.93;;;;;;;;;;5012740;28;20206;-72
2022/08/17 01:45:15;;;;;;;6.97;6.27;;;;;;;;;;5031594;28;20206;-72
2022/08/17 01:47:41;;;;;;;6.97;6.27;;;;;;;;;;5031639;28;20166;-72
2022/08/17 01:50:10;;;;;;;7.27;6.53;;;;;;;;;;5030030;28;20189;-72
2022/08/17 01:52:36;;;;;;;6.70;5.97;;;;;;;;;;5030704;28;20257;-72
2022/08/17 01:55:03;;;;;;;7.70;6.50;;;;;;;;;;5031726;28;20236;-72
2022/08/17 01:57:29;;;;;;;6.47;5.87;;;;;;;;;;5030714;28;20189;-71
2022/08/17 01:59:55;;;;;;;6.57;5.60;;;;;;;;;;5014563;28;20312;-71
2022/08/17 02:02:22;;;;;;;6.50;5.90;;;;;;;;;;5030988;28;20289;-72
2022/08/17 02:04:48;;;;;;;6.63;5.93;;;;;;;;;;5025780;28;20179;-71
2022/08/17 02:07:15;;;;;;;6.60;6.00;;;;;;;;;;5032375;28;20618;-71
2022/08/17 02:09:42;;;;;;;6.17;5.67;;;;;;;;;;5031992;28;20178;-72
2022/08/17 02:12:09;;;;;;;5.97;5.47;;;;;;;;;;5030966;28;20194;-71
2022/08/17 02:14:35;;;;;;;5.90;5.40;;;;;;;;;;5031030;28;20228;-71
2022/08/17 02:17:01;;;;;;;5.73;5.23;;;;;;;;;;5013425;28;20555;-71
2022/08/17 02:19:27;;;;;;;7.87;5.60;;;;;;;;;;5031006;28;20666;-71
2022/08/17 02:21:53;;;;;;;5.57;5.07;;;;;;;;;;5021845;28;20676;-71
2022/08/17 02:24:22;;;;;;;6.10;5.60;;;;;;;;;;5031768;28;20181;-71
2022/08/17 02:26:49;;;;;;;6.20;5.70;;;;;;;;;;5031221;28;20220;-71
2022/08/17 02:29:15;;;;;;;7.47;6.30;;;;;;;;;;5023665;28;20170;-71
2022/08/17 02:31:42;;;;;;;7.20;6.43;;;;;;;;;;5030872;28;20216;-71
2022/08/17 02:34:08;;;;;;;6.20;5.60;;;;;;;;;;5016694;28;20195;-71
2022/08/17 02:36:35;;;;;;;6.53;6.03;;;;;;;;;;5030783;28;20265;-71
2022/08/17 02:39:05;;;;;;;6.60;5.90;;;;;;;;;;5031272;28;20183;-71
2022/08/17 02:41:32;;;;;;;6.53;5.87;;;;;;;;;;5030585;28;20206;-71
2022/08/17 02:43:58;;;;;;;6.10;5.60;;;;;;;;;;5030700;28;20194;-71
2022/08/17 02:46:24;;;;;;;5.63;5.20;;;;;;;;;;5031583;28;20260;-71
2022/08/17 02:48:50;;;;;;;6.50;5.83;;;;;;;;;;5031094;28;20179;-71
2022/08/17 02:51:17;;;;;;;6.50;5.90;;;;;;;;;;5029941;28;20217;-71
2022/08/17 02:53:43;;;;;;;6.53;5.70;;;;;;;;;;5013172;28;20178;-71
2022/08/17 02:56:09;;;;;;;7.33;6.40;;;;;;;;;;5012990;28;20663;-71
2022/08/17 02:58:35;;;;;;;6.93;6.07;;;;;;;;;;5031210;28;20616;-71
2022/08/17 03:01:02;;;;;;;6.43;5.93;;;;;;;;;;5030516;28;20182;-71
2022/08/17 03:03:28;;;;;;;6.23;5.63;;;;;;;;;;5030881;28;20182;-71
2022/08/17 03:05:54;;;;;;;6.20;5.60;;;;;;;;;;5027237;28;20765;-71
2022/08/17 03:08:22;;;;;;;6.10;5.50;;;;;;;;;;5030877;28;20197;-71
2022/08/17 03:10:49;;;;;;;6.60;6.00;;;;;;;;;;5029137;28;20210;-71
2022/08/17 03:13:15;;;;;;;6.57;5.97;;;;;;;;;;5025172;28;20691;-71
2022/08/17 03:15:43;;;;;;;7.23;6.07;;;;;;;;;;5029716;28;20221;-71
2022/08/17 03:18:11;;;;;;;6.33;5.77;;;;;;;;;;5030094;28;20197;-71
2022/08/17 03:20:37;;;;;;;6.93;6.30;;;;;;;;;;5030524;28;20184;-71
2022/08/17 03:23:04;;;;;;;7.73;7.03;;;;;;;;;;5009860;28;20232;-71
2022/08/17 03:25:35;;;;;;;7.73;6.90;;;;;;;;;;5030779;28;20559;-71
2022/08/17 03:28:01;;;;;;;7.10;6.50;;;;;;;;;;5012427;28;20189;-71
2022/08/17 03:30:28;;;;;;;8.00;7.30;;;;;;;;;;5029611;28;20262;-71
2022/08/17 03:32:55;;;;;;;7.20;6.60;;;;;;;;;;5029849;28;20212;-71
2022/08/17 03:35:23;;;;;;;10.17;7.17;;;;;;;;;;5030634;28;20258;-71
2022/08/17 03:37:49;;;;;;;8.10;7.40;;;;;;;;;;5030600;28;20733;-71
2022/08/17 03:40:16;;;;;;;8.73;6.93;;;;;;;;;;5030372;28;20248;-71
2022/08/17 03:42:42;;;;;;;7.10;6.17;;;;;;;;;;5010229;28;20230;-71
2022/08/17 03:45:11;;;;;;;7.23;6.53;;;;;;;;;;5029631;28;20755;-71
2022/08/17 03:58:43;;;;;;;7.23;6.60;;;;;;;;;;5029446;28;20229;-71
2022/08/17 04:01:09;;;;;;;6.93;6.33;;;;;;;;;;5029008;28;20265;-71
2022/08/17 04:03:35;;;;;;;6.90;6.20;;;;;;;;;;5012450;28;20217;-71
2022/08/17 04:06:02;;;;;;;7.20;6.50;;;;;;;;;;5030840;28;20237;-71
2022/08/17 04:08:28;;;;;;;7.50;6.80;;;;;;;;;;5034188;28;20175;-71
2022/08/17 04:10:55;;;;;;;6.37;5.80;;;;;;;;;;5033715;28;20653;-71
2022/08/17 04:13:21;;;;;;;7.17;6.57;;;;;;;;;;5032495;28;20519;-71
2022/08/17 04:15:48;;;;;;;6.87;6.17;;;;;;;;;;5030551;28;20179;-71
2022/08/17 04:18:18;;;;;;;7.63;6.67;;;;;;;;;;5032224;28;20228;-71
2022/08/17 04:20:44;;;;;;;9.00;6.93;;;;;;;;;;5033178;28;20190;-71
2022/08/17 04:23:15;;;;;;;7.90;6.87;;;;;;;;;;5030339;28;20277;-71
2022/08/17 04:25:43;;;;;;;6.60;6.00;;;;;;;;;;5028009;28;20207;-71
2022/08/17 04:28:09;;;;;;;8.47;7.67;;;;;;;;;;5033214;28;20275;-71
2022/08/17 04:30:36;;;;;;;7.87;7.17;;;;;;;;;;5031324;28;20619;-71
2022/08/17 04:33:05;;;;;;;9.27;7.53;;;;;;;;;;5032835;28;20221;-71
2022/08/17 04:35:33;;;;;;;7.80;7.10;;;;;;;;;;5033657;28;20175;-72
2022/08/17 04:37:59;;;;;;;9.37;8.40;;;;;;;;;;5033546;28;20190;-71
2022/08/17 04:43:11;;;;;;;8.23;7.43;;;;;;;;;;5019344;28;20194;-71
2022/08/17 04:45:38;;;;;;;9.23;8.33;;;;;;;;;;5032698;28;20221;-71
2022/08/17 04:48:04;;;;;;;9.03;8.23;;;;;;;;;;5033468;28;20671;-71
2022/08/17 04:50:30;;;;;;;8.10;7.40;;;;;;;;;;5032496;28;20197;-71
2022/08/17 04:52:56;;;;;;;9.27;7.60;;;;;;;;;;5032075;28;20214;-71
2022/08/17 04:55:23;;;;;;;8.90;7.97;;;;;;;;;;5037556;28;20174;-71
2022/08/17 04:57:49;;;;;;;8.70;7.77;;;;;;;;;;5031505;28;20601;-71
2022/08/17 05:00:15;;;;;;;8.20;7.47;;;;;;;;;;5015346;28;20193;-71
2022/08/17 05:02:49;;;;;;;8.43;7.23;;;;;;;;;;5031945;28;20202;-71
2022/08/17 05:05:19;;;;;;;10.10;7.10;;;;;;;;;;5028909;28;20182;-71
2022/08/17 05:07:45;;;;;;;8.40;7.50;;;;;;;;;;5029790;28;20273;-71
2022/08/17 05:10:11;;;;;;;11.87;7.90;;;;;;;;;;5030655;28;20680;-71
2022/08/17 05:12:37;;;;;;;11.97;7.73;;;;;;;;;;5031026;28;20206;-71
2022/08/17 05:15:04;;;;;;;11.97;8.27;;;;;;;;;;5032120;28;20182;-71
2022/08/17 05:17:30;;;;;;;7.70;7.00;;;;;;;;;;5030290;28;20178;-71
2022/08/17 05:19:56;;;;;;;10.57;7.60;;;;;;;;;;5032242;28;20183;-71
2022/08/17 05:22:22;;;;;;;9.47;7.67;;;;;;;;;;5027448;28;20285;-71
2022/08/17 05:24:48;;;;;;;10.33;7.97;;;;;;;;;;5031000;28;20651;-73
2022/08/17 05:27:15;;;;;;;12.13;8.33;;;;;;;;;;5032520;28;20740;-73
2022/08/17 05:29:41;;;;;;;10.53;8.43;;;;;;;;;;5030278;28;20616;-74
2022/08/17 05:32:08;;;;;;;9.30;8.43;;;;;;;;;;5031559;28;20199;-76
2022/08/17 05:34:35;;;;;;;9.47;8.47;;;;;;;;;;5030733;28;20170;-75
2022/08/17 05:37:01;;;;;;;10.00;8.57;;;;;;;;;;5014061;28;20240;-75
2022/08/17 05:39:27;;;;;;;12.13;9.47;;;;;;;;;;5011239;28;20572;-72
2022/08/17 05:41:54;;;;;;;14.53;8.67;;;;;;;;;;5031424;28;20218;-72
2022/08/17 05:44:20;;;;;;;11.57;8.77;;;;;;;;;;5028384;28;20179;-72
2022/08/17 05:46:48;;;;;;;10.80;9.70;;;;;;;;;;5028735;28;20260;-72
2022/08/17 05:49:15;;;;;;;10.73;8.77;;;;;;;;;;5027455;28;20177;-75
2022/08/17 05:52:00;;;;;;;11.97;8.63;;;;;;;;;;5026081;28;20268;-75
2022/08/17 05:54:26;;;;;;;9.73;8.73;;;;;;;;;;5024449;28;20216;-69
2022/08/17 05:56:58;;;;;;;11.90;9.20;;;;;;;;;;5026753;28;20182;-74
2022/08/17 05:59:25;;;;;;;13.10;9.60;;;;;;;;;;5031812;28;20273;-75
2022/08/17 06:01:54;;;;;;;9.77;8.77;;;;;;;;;;5027222;28;20206;-74
2022/08/17 06:04:45;;;;;;;10.90;8.63;;;;;;;;;;5029707;28;20182;-74
2022/08/17 06:07:18;;;;;;;9.40;8.57;;;;;;;;;;5030247;28;20625;-74
2022/08/17 06:10:13;;;;;;;10.00;9.00;;;;;;;;;;5030028;28;20232;-74
2022/08/17 06:13:03;;;;;;;11.63;9.07;;;;;;;;;;4999088;28;20671;-75
2022/08/17 06:15:52;;;;;;;10.30;9.30;;;;;;;;;;4991561;28;20206;-75
2022/08/17 06:18:19;;;;;;;10.00;9.00;;;;;;;;;;5013538;28;20191;-75
2022/08/17 06:20:53;;;;;;;9.77;8.77;;;;;;;;;;5030550;28;20218;-75
2022/08/17 06:23:34;;;;;;;9.40;8.17;;;;;;;;;;5026100;28;20186;-75
2022/08/17 06:26:03;;;;;;;10.83;7.90;;;;;;;;;;5011887;28;20656;-75
2022/08/17 06:28:33;;;;;;;11.07;8.30;;;;;;;;;;5025378;28;20209;-75
2022/08/17 06:31:05;;;;;;;9.60;8.70;;;;;;;;;;5031337;28;20655;-75
2022/08/17 06:33:37;;;;;;;9.87;8.53;;;;;;;;;;5031431;28;20179;-75
2022/08/17 06:36:10;;;;;;;9.40;8.40;;;;;;;;;;5027127;28;20199;-75
2022/08/17 06:38:46;;;;;;;9.80;8.80;;;;;;;;;;5031667;28;20237;-75
2022/08/17 06:41:12;;;;;;;14.60;9.57;;;;;;;;;;5029398;28;20206;-75
2022/08/17 06:43:56;;;;;;;9.30;8.40;;;;;;;;;;5030068;28;20269;-75
2022/08/17 06:46:30;;;;;;;9.80;8.37;;;;;;;;;;5028460;28;20213;-74
2022/08/17 06:49:08;;;;;;;8.73;7.93;;;;;;;;;;5027631;28;20193;-75
2022/08/17 06:51:39;;;;;;;14.10;9.10;;;;;;;;;;5028963;28;20690;-75
2022/08/17 06:54:08;;;;;;;9.30;8.30;;;;;;;;;;5018626;28;20213;-74
2022/08/17 06:56:34;;;;;;;8.77;7.87;;;;;;;;;;5030709;28;20189;-75
2022/08/17 06:59:01;;;;;;;9.90;7.83;;;;;;;;;;5028298;28;20206;-75
2022/08/17 07:01:31;;;;;;;10.37;7.83;;;;;;;;;;5023587;28;20288;-75
2022/08/17 07:04:02;;;;;;;9.57;8.17;;;;;;;;;;5030791;28;20531;-75
2022/08/17 07:06:32;;;;;;;10.07;8.00;;;;;;;;;;5012269;28;20698;-75
2022/08/17 07:09:04;;;;;;;9.63;8.13;;;;;;;;;;5026583;28;20664;-75
2022/08/17 07:11:33;;;;;;;10.03;7.50;;;;;;;;;;5025143;28;20206;-75
2022/08/17 07:14:06;;;;;;;9.03;7.90;;;;;;;;;;5027304;28;20183;-75
2022/08/17 07:16:37;;;;;;;8.90;7.67;;;;;;;;;;5004853;28;20199;-75
2022/08/17 07:19:06;;;;;;;9.30;7.40;;;;;;;;;;5027326;28;20571;-76
2022/08/17 07:21:41;;;;;;;9.87;7.50;;;;;;;;;;5026819;28;20217;-76
2022/08/17 07:24:26;;;;;;;10.10;8.70;;;;;;;;;;5024943;28;20222;-75
2022/08/17 07:27:06;;;;;;;10.17;8.60;;;;;;;;;;5022944;28;20256;-76
2022/08/17 07:29:37;;;;;;;8.97;8.07;;;;;;;;;;5026141;28;20236;-74
2022/08/17 07:32:03;;;;;;;8.37;7.40;;;;;;;;;;5021034;28;20762;-76
2022/08/17 07:34:29;;;;;;;12.57;7.93;;;;;;;;;;5017303;28;20182;-76
2022/08/17 07:37:04;;;;;;;10.03;7.37;;;;;;;;;;5026900;28;20289;-76
2022/08/17 07:39:30;;;;;;;7.13;6.47;;;;;;;;;;5043547;28;20213;-76
2022/08/17 07:42:05;;;;;;;7.50;6.23;;;;;;;;;;5030347;28;20206;-76
2022/08/17 07:44:32;;;;;;;6.50;5.90;;;;;;;;;;5011132;28;20182;-76
2022/08/17 07:49:47;;;;;;;9.50;6.13;;;;;;;;;;5027684;28;20183;-76
2022/08/17 07:52:31;;;;;;;7.80;6.03;;;;;;;;;;5029610;28;20625;-75
2022/08/17 07:54:58;;;;;;;8.10;5.80;;;;;;;;;;5026060;28;20182;-76
2022/08/17 07:57:35;;;;;;;5.97;5.27;;;;;;;;;;5030076;28;20655;-77
2022/08/17 08:00:01;;;;;;;6.87;5.40;;;;;;;;;;5014358;28;20213;-77
2022/08/17 08:02:41;;;;;;;8.40;6.00;;;;;;;;;;5032057;28;20238;-77
2022/08/17 08:05:21;;;;;;;6.17;5.40;;;;;;;;;;5028164;28;20269;-77
2022/08/17 08:07:48;;;;;;;8.23;5.43;;;;;;;;;;5028695;28;20608;-77
2022/08/17 08:10:15;;;;;;;7.73;5.70;;;;;;;;;;5020715;28;20183;-77
2022/08/17 08:12:43;;;;;;;9.53;6.10;;;;;;;;;;5030405;28;20238;-77
2022/08/17 08:15:24;;;;;;;6.90;6.20;;;;;;;;;;5013008;28;20191;-77
2022/08/17 08:17:52;;;;;;;7.43;6.00;;;;;;;;;;5029159;28;20190;-78
2022/08/17 08:20:25;;;;;;;9.63;6.30;;;;;;;;;;5026974;28;20183;-77
2022/08/17 08:23:00;;;;;;;8.43;6.30;;;;;;;;;;5028471;28;20260;-77
2022/08/17 08:25:32;;;;;;;7.57;6.27;;;;;;;;;;5026652;28;20182;-77
2022/08/17 08:28:07;;;;;;;7.93;6.20;;;;;;;;;;5028163;28;20195;-78
2022/08/17 08:30:35;;;;;;;9.33;6.37;;;;;;;;;;5024528;28;20193;-77
2022/08/17 08:33:16;;;;;;;9.47;6.80;;;;;;;;;;5004574;28;20626;-78
2022/08/17 08:35:52;;;;;;;6.87;6.13;;;;;;;;;;5029770;28;20262;-78
2022/08/17 08:38:29;;;;;;;6.77;6.10;;;;;;;;;;5025019;28;20183;-78
2022/08/17 08:40:58;;;;;;;7.57;6.27;;;;;;;;;;5024554;28;20965;-77
2022/08/17 08:43:30;;;;;;;8.53;6.77;;;;;;;;;;5026418;28;20341;-77
2022/08/17 08:45:59;;;;;;;6.57;5.87;;;;;;;;;;5028593;28;20210;-76
2022/08/17 08:48:41;;;;;;;6.60;5.87;;;;;;;;;;5009718;28;20178;-77
2022/08/17 08:51:16;;;;;;;6.53;5.80;;;;;;;;;;5026943;28;20198;-77
2022/08/17 08:53:57;;;;;;;10.40;6.50;;;;;;;;;;5032044;28;20184;-77
2022/08/17 08:56:23;;;;;;;9.03;6.10;;;;;;;;;;5032145;28;20190;-78
2022/08/17 08:59:00;;;;;;;7.00;6.30;;;;;;;;;;5027587;28;20304;-77
2022/08/17 09:01:46;;;;;;;7.00;6.00;;;;;;;;;;5029601;28;20248;-78
2022/08/17 09:04:16;;;;;;;8.33;6.37;;;;;;;;;;4999920;28;20278;-75
2022/08/17 09:06:55;;;;;;;7.77;6.37;;;;;;;;;;5026900;28;20211;-75
2022/08/17 09:09:39;;;;;;;6.70;6.10;;;;;;;;;;5024101;28;20190;-75
2022/08/17 09:12:30;;;;;;;6.83;6.13;;;;;;;;;;5026256;28;20222;-75
2022/08/17 09:14:58;;;;;;;6.43;5.73;;;;;;;;;;5028626;28;20178;-77
2022/08/17 09:17:31;;;;;;;6.77;6.00;;;;;;;;;;5031869;28;20190;-77
2022/08/17 09:20:03;;;;;;;7.77;6.17;;;;;;;;;;5030279;28;20202;-76
2022/08/17 09:22:38;;;;;;;7.47;5.90;;;;;;;;;;5030486;28;20687;-79
2022/08/17 09:25:08;;;;;;;14.63;6.27;;;;;;;;;;5032125;28;20196;-77
2022/08/17 09:28:03;;;;;;;9.20;5.63;;;;;;;;;;5029747;28;20210;-76
2022/08/17 09:30:39;;;;;;;7.43;6.27;;;;;;;;;;5012109;28;20293;-76
2022/08/17 09:33:21;;;;;;;6.13;5.20;;;;;;;;;;5030031;28;20204;-77
2022/08/17 09:35:51;;;;;;;8.40;5.57;;;;;;;;;;5032146;28;20221;-77
2022/08/17 09:38:29;;;;;;;9.17;5.63;;;;;;;;;;5032583;28;20652;-76
2022/08/17 09:41:08;;;;;;;6.47;5.87;;;;;;;;;;5011330;28;20958;-76
2022/08/17 09:43:49;;;;;;;8.03;5.20;;;;;;;;;;5014815;28;20265;-77
2022/08/17 09:46:22;;;;;;;5.87;5.20;;;;;;;;;;5021119;28;20221;-76
2022/08/17 09:49:02;;;;;;;9.53;6.17;;;;;;;;;;5025685;28;20182;-76
2022/08/17 09:51:32;;;;;;;9.17;6.00;;;;;;;;;;5026671;28;20206;-76
2022/08/17 09:53:58;;;;;;;10.33;6.13;;;;;;;;;;5027420;28;20266;-76
2022/08/17 09:56:34;;;;;;;9.73;6.17;;;;;;;;;;5029619;28;20176;-76
2022/08/17 09:59:10;;;;;;;8.27;6.10;;;;;;;;;;5031769;28;20542;-76
2022/08/17 10:01:55;;;;;;;8.37;5.70;;;;;;;;;;5032559;28;20198;-76
2022/08/17 10:04:34;;;;;;;6.53;5.63;;;;;;;;;;5030300;28;20217;-76
2022/08/17 10:07:12;;;;;;;7.23;5.40;;;;;;;;;;5028193;28;20214;-76
2022/08/17 10:09:48;;;;;;;6.20;5.60;;;;;;;;;;5029703;28;20659;-75
2022/08/17 10:12:19;;;;;;;6.03;5.33;;;;;;;;;;5031806;28;20194;-76
2022/08/17 10:15:04;;;;;;;5.87;5.27;;;;;;;;;;5011885;28;20187;-76
2022/08/17 10:17:42;;;;;;;5.50;5.00;;;;;;;;;;5027539;28;20186;-75
2022/08/17 10:20:18;;;;;;;6.10;5.47;;;;;;;;;;5031705;28;20277;-75
2022/08/17 10:28:31;;;;;;;7.07;5.53;;;;;;;;;;5028325;28;20188;-76
2022/08/17 10:30:59;;;;;;;6.27;5.63;;;;;;;;;;5029855;28;20184;-76
2022/08/17 10:33:31;;;;;;;7.13;5.53;;;;;;;;;;5030568;28;20183;-75
2022/08/17 10:35:57;;;;;;;5.60;5.10;;;;;;;;;;5014281;28;20185;-74
2022/08/17 10:38:33;;;;;;;7.63;6.20;;;;;;;;;;5030636;28;20184;-76
2022/08/17 10:40:59;;;;;;;6.80;6.03;;;;;;;;;;5029047;28;20269;-75
2022/08/17 10:43:28;;;;;;;8.27;7.33;;;;;;;;;;5024781;28;20227;-74
2022/08/17 10:46:01;;;;;;;9.63;7.30;;;;;;;;;;5027502;28;20202;-73
2022/08/17 10:48:35;;;;;;;7.97;7.03;;;;;;;;;;5041964;28;20192;-73
2022/08/17 10:51:07;;;;;;;7.90;6.90;;;;;;;;;;5030525;28;20273;-73
2022/08/17 10:53:46;;;;;;;10.07;7.90;;;;;;;;;;5024901;28;20328;-74
2022/08/17 10:56:12;;;;;;;8.90;7.70;;;;;;;;;;5011177;28;20194;-74
2022/08/17 10:58:52;;;;;;;8.13;7.30;;;;;;;;;;5029970;28;20190;-74
2022/08/17 11:01:21;;;;;;;7.73;7.03;;;;;;;;;;5026304;28;20214;-74
2022/08/17 11:03:52;;;;;;;8.60;7.07;;;;;;;;;;5029936;28;20294;-74
2022/08/17 11:06:24;;;;;;;8.33;7.47;;;;;;;;;;5024966;28;20218;-74
2022/08/17 11:09:12;;;;;;;7.97;7.17;;;;;;;;;;5030728;28;20181;-74
2022/08/17 11:11:46;;;;;;;8.43;7.13;;;;;;;;;;5021926;28;20620;-74
2022/08/17 11:14:16;;;;;;;7.40;6.70;;;;;;;;;;5029538;28;20214;-73
2022/08/17 11:16:44;;;;;;;8.63;7.10;;;;;;;;;;5031426;28;20175;-74
2022/08/17 11:19:16;;;;;;;8.73;7.50;;;;;;;;;;5028254;28;20187;-73
2022/08/17 11:21:50;;;;;;;7.30;6.60;;;;;;;;;;5024723;28;20206;-73
2022/08/17 11:24:31;;;;;;;15.67;7.67;;;;;;;;;;5028273;28;20180;-73
2022/08/17 11:27:03;;;;;;;6.80;6.20;;;;;;;;;;5011428;28;20210;-74
2022/08/17 11:29:35;;;;;;;7.37;6.77;;;;;;;;;;5027033;28;20182;-74
2022/08/17 11:32:11;;;;;;;7.10;5.90;;;;;;;;;;5027161;28;20857;-74
2022/08/17 11:34:39;;;;;;;9.63;6.73;;;;;;;;;;5029474;28;20185;-74
2022/08/17 11:37:44;;;;;;;8.00;6.73;;;;;;;;;;5012504;28;20190;-74
2022/08/17 11:40:10;;;;;;;12.13;6.93;;;;;;;;;;4967450;28;20231;-75
2022/08/17 11:42:48;;;;;;;8.73;7.10;;;;;;;;;;4950979;28;20245;-74
2022/08/17 11:45:26;;;;;;;7.27;6.57;;;;;;;;;;4997653;28;20555;-78
2022/08/17 11:53:44;;;;;;;6.37;5.77;;;;;;;;;;5007840;28;20190;-75
2022/08/17 11:56:41;;;;;;;6.50;5.33;;;;;;;;;;5030019;28;20183;-74
2022/08/17 11:59:44;;;;;;;4.97;4.57;;;;;;;;;;5027140;28;20248;-73
2022/08/17 12:02:34;;;;;;;5.73;4.80;;;;;;;;;;4954777;28;20669;-74
2022/08/17 12:05:20;;;;;;;6.00;5.20;;;;;;;;;;5027490;28;20594;-74
2022/08/17 12:07:53;;;;;;;7.20;5.10;;;;;;;;;;5024796;28;20690;-74
2022/08/17 12:10:30;;;;;;;5.63;5.03;;;;;;;;;;5028212;28;20588;-73
2022/08/17 12:13:01;;;;;;;5.33;4.83;;;;;;;;;;5029217;28;20613;-74
2022/08/17 12:15:38;;;;;;;5.47;4.73;;;;;;;;;;5023116;28;20190;-75
2022/08/17 12:18:19;;;;;;;5.50;5.00;;;;;;;;;;5029891;28;20611;-74
2022/08/17 12:21:12;;;;;;;4.77;4.30;;;;;;;;;;5010352;28;20187;-74
2022/08/17 12:23:54;;;;;;;6.60;5.40;;;;;;;;;;4991274;28;20455;-75
2022/08/17 12:26:21;;;;;;;7.43;5.00;;;;;;;;;;5028104;28;20238;-74
2022/08/17 12:28:49;;;;;;;6.97;4.60;;;;;;;;;;5033114;28;20182;-77
2022/08/17 12:31:24;;;;;;;5.40;4.83;;;;;;;;;;5031070;28;20567;-77
2022/08/17 12:33:50;;;;;;;5.33;4.83;;;;;;;;;;5029542;28;20267;-76
2022/08/17 12:36:20;;;;;;;8.17;5.20;;;;;;;;;;5029617;28;20236;-74
2022/08/17 12:38:50;;;;;;;5.67;5.17;;;;;;;;;;5032040;28;20321;-76
2022/08/17 12:41:29;;;;;;;6.63;5.60;;;;;;;;;;5026072;28;20198;-74
2022/08/17 12:43:57;;;;;;;5.73;5.13;;;;;;;;;;5010680;28;20209;-75
2022/08/17 12:46:23;;;;;;;5.27;4.87;;;;;;;;;;5011792;28;20216;-75
2022/08/17 12:48:49;;;;;;;5.43;5.00;;;;;;;;;;5034144;28;20269;-74
2022/08/17 12:51:16;;;;;;;5.27;4.87;;;;;;;;;;5031871;28;20272;-75
2022/08/17 12:53:48;;;;;;;5.77;4.80;;;;;;;;;;5031690;28;20182;-74
2022/08/17 12:56:15;;;;;;;5.40;4.87;;;;;;;;;;5029536;28;20194;-75
2022/08/17 12:58:52;;;;;;;5.27;4.77;;;;;;;;;;5026815;28;20779;-75
2022/08/17 13:01:18;;;;;;;5.53;5.03;;;;;;;;;;5028161;28;20650;-75
2022/08/17 13:03:51;;;;;;;5.97;5.10;;;;;;;;;;5026746;28;20191;-74
2022/08/17 13:06:28;;;;;;;5.80;5.00;;;;;;;;;;5009799;28;20209;-75
2022/08/17 13:08:55;;;;;;;5.00;4.60;;;;;;;;;;5028721;28;20190;-75
2022/08/17 13:11:23;;;;;;;5.90;5.30;;;;;;;;;;5025345;28;20259;-75
2022/08/17 13:13:52;;;;;;;6.17;4.60;;;;;;;;;;5030028;28;20179;-75
2022/08/17 13:16:19;;;;;;;5.43;4.90;;;;;;;;;;5029221;28;20191;-75
2022/08/17 13:18:47;;;;;;;5.37;4.90;;;;;;;;;;5028512;28;20194;-75
2022/08/17 13:21:26;;;;;;;5.20;4.80;;;;;;;;;;5026130;28;20213;-75
2022/08/17 13:24:01;;;;;;;4.90;4.50;;;;;;;;;;5026601;28;20183;-75
2022/08/17 13:26:30;;;;;;;5.60;5.10;;;;;;;;;;5009457;28;20241;-75
2022/08/17 13:28:57;;;;;;;5.00;4.50;;;;;;;;;;5008903;28;20189;-75
2022/08/17 13:31:27;;;;;;;4.90;4.50;;;;;;;;;;5023988;28;20215;-75
2022/08/17 13:34:31;;;;;;;4.70;4.30;;;;;;;;;;5028139;28;20203;-75
2022/08/17 13:37:16;;;;;;;4.90;4.50;;;;;;;;;;4934770;29;20605;-76
2022/08/17 13:39:43;;;;;;;4.53;4.17;;;;;;;;;;4931041;29;20455;-75
2022/08/17 13:42:48;;;;;;;7.00;4.47;;;;;;;;;;4969788;28;20289;-79
2022/08/17 13:45:30;;;;;;;5.00;4.60;;;;;;;;;;4946222;28;20197;-77
2022/08/17 13:48:08;;;;;;;4.60;4.10;;;;;;;;;;4947618;28;20260;-80
2022/08/17 13:50:34;;;;;;;4.57;4.20;;;;;;;;;;5000500;28;20204;-81
2022/08/17 13:53:01;;;;;;;5.83;4.10;;;;;;;;;;5024167;28;20219;-79
2022/08/17 13:55:28;;;;;;;4.17;3.60;;;;;;;;;;5013372;28;20730;-80
2022/08/17 13:57:55;;;;;;;5.70;3.90;;;;;;;;;;5029285;28;20183;-80
2022/08/17 14:00:32;;;;;;;4.10;3.80;;;;;;;;;;5009880;28;20195;-80
2022/08/17 14:03:00;;;;;;;3.70;3.40;;;;;;;;;;5027253;28;20227;-80
2022/08/17 14:05:27;;;;;;;3.53;3.07;;;;;;;;;;5026290;28;20185;-79
2022/08/17 14:08:01;;;;;;;3.70;3.30;;;;;;;;;;5026890;28;20696;-80
2022/08/17 14:10:28;;;;;;;3.63;3.33;;;;;;;;;;5020910;28;20241;-78
2022/08/17 14:12:55;;;;;;;3.83;3.53;;;;;;;;;;5008612;28;20231;-79
2022/08/17 14:15:23;;;;;;;3.43;3.13;;;;;;;;;;5026934;28;20243;-80
2022/08/17 14:17:49;;;;;;;3.73;3.30;;;;;;;;;;5028605;28;20191;-80
2022/08/17 14:20:18;;;;;;;4.43;3.63;;;;;;;;;;5030126;28;20207;-80
2022/08/17 14:22:52;;;;;;;4.10;3.70;;;;;;;;;;5029437;28;20232;-80
2022/08/17 14:25:20;;;;;;;3.93;3.63;;;;;;;;;;5029121;28;20553;-80
2022/08/17 14:27:47;;;;;;;3.90;3.50;;;;;;;;;;5030767;28;20298;-80
2022/08/17 14:30:13;;;;;;;3.87;3.57;;;;;;;;;;5028115;28;20214;-80
2022/08/17 14:32:40;;;;;;;5.17;3.70;;;;;;;;;;5027498;28;20215;-80
2022/08/17 14:35:08;;;;;;;4.17;3.77;;;;;;;;;;5027890;28;20237;-81
2022/08/17 14:37:35;;;;;;;3.70;3.40;;;;;;;;;;5027146;28;20190;-80
2022/08/17 14:40:03;;;;;;;3.47;3.17;;;;;;;;;;5026641;28;20193;-80
2022/08/17 14:42:31;;;;;;;5.00;3.60;;;;;;;;;;5026394;28;20940;-80
2022/08/17 14:44:57;;;;;;;3.73;3.40;;;;;;;;;;5030821;28;20297;-80
2022/08/17 14:47:25;;;;;;;3.80;3.50;;;;;;;;;;5028682;28;20301;-79
2022/08/17 14:49:52;;;;;;;3.60;3.30;;;;;;;;;;5026069;28;20239;-80
2022/08/17 14:52:22;;;;;;;4.77;3.80;;;;;;;;;;5024863;28;20220;-80
2022/08/17 14:54:50;;;;;;;3.80;3.50;;;;;;;;;;5027045;28;20209;-80
2022/08/17 14:57:17;;;;;;;4.20;3.50;;;;;;;;;;5028054;28;20198;-80
2022/08/17 14:59:43;;;;;;;4.00;3.70;;;;;;;;;;5008104;28;20203;-80
2022/08/17 15:02:09;;;;;;;5.27;3.80;;;;;;;;;;5022705;28;20211;-82
2022/08/17 15:04:36;;;;;;;3.27;3.07;;;;;;;;;;5011516;28;20276;-83
2022/08/17 15:07:02;;;;;;;5.23;3.37;;;;;;;;;;4993189;28;20234;-79
2022/08/17 15:09:29;;;;;;;3.80;3.40;;;;;;;;;;5015862;28;20183;-80
2022/08/17 15:11:56;;;;;;;4.55;3.50;;;;;;;;;;5024779;28;20208;-80
2022/08/17 15:14:22;;;;;;;3.37;3.17;;;;;;;;;;5008007;28;20234;-79
2022/08/17 15:16:48;;;;;;;4.65;3.67;;;;;;;;;;5028623;28;20764;-80
2022/08/17 15:19:15;;;;;;;4.60;3.50;;;;;;;;;;5024030;28;20274;-80
2022/08/17 15:21:41;;;;;;;4.43;3.47;;;;;;;;;;5028083;28;20690;-80
2022/08/17 15:24:08;;;;;;;3.97;3.20;;;;;;;;;;5009165;28;20251;-80
2022/08/17 15:26:35;;;;;;;3.57;3.27;;;;;;;;;;5033695;28;20214;-80
2022/08/17 15:29:01;;;;;;;4.53;3.70;;;;;;;;;;5036283;28;20205;-80
2022/08/17 15:31:28;;;;;;;4.53;3.50;;;;;;;;;;5028441;28;20224;-80